createdAt,value
2023-03-19T00:02:23.668Z,52.50
2023-03-19T00:12:29.428Z,53.14
2023-03-19T00:22:35.107Z,53.28
2023-03-19T00:32:41.169Z,53.59
2023-03-19T00:42:46.926Z,53.71
2023-03-19T00:52:53.331Z,53.94
2023-03-19T01:02:58.946Z,54.36
2023-03-19T01:13:05.034Z,54.56
2023-03-19T01:23:10.694Z,55.14
2023-03-19T01:33:16.895Z,55.59
2023-03-19T01:43:24.136Z,55.64
2023-03-19T01:53:32.940Z,55.96
2023-03-19T02:03:40.261Z,56.07
2023-03-19T02:13:47.262Z,56.31
2023-03-19T02:24:00.918Z,56.46
2023-03-19T02:34:28.769Z,56.77
2023-03-19T02:44:34.599Z,57.01
2023-03-19T02:54:40.275Z,57.22
2023-03-19T03:04:46.550Z,57.40
2023-03-19T03:14:52.230Z,57.40
2023-03-19T03:24:57.962Z,57.61
2023-03-19T03:35:05.370Z,58.05
2023-03-19T03:45:13.111Z,58.40
2023-03-19T03:55:19.006Z,58.48
2023-03-19T04:05:24.796Z,58.96
2023-03-19T04:15:30.694Z,59.74
2023-03-19T04:25:36.376Z,60.21
2023-03-19T04:35:42.462Z,60.66
2023-03-19T04:45:48.152Z,61.26
2023-03-19T04:55:53.930Z,61.85
2023-03-19T05:05:59.905Z,62.16
2023-03-19T05:16:06.816Z,61.98
2023-03-19T05:26:11.715Z,61.45
2023-03-19T05:36:18.224Z,60.05
2023-03-19T05:46:24.594Z,58.52
2023-03-19T05:56:30.960Z,56.01
2023-03-19T06:06:36.637Z,52.61
2023-03-19T06:16:42.818Z,50.50
2023-03-19T06:26:48.689Z,45.92
2023-03-19T06:36:54.792Z,42.70
2023-03-19T06:47:00.469Z,39.52
2023-03-19T06:57:06.303Z,35.97
2023-03-19T07:07:12.673Z,33.64
2023-03-19T07:17:18.411Z,31.77
2023-03-19T07:27:24.091Z,31.43
2023-03-19T07:37:29.808Z,31.31
2023-03-19T07:47:35.768Z,29.56
2023-03-19T07:57:41.725Z,27.65
2023-03-19T08:07:49.646Z,27.13
2023-03-19T08:18:01.765Z,26.57
2023-03-19T08:28:09.932Z,26.38
2023-03-19T08:38:15.542Z,25.37
2023-03-19T08:48:21.263Z,24.01
2023-03-19T08:58:28.269Z,22.93
2023-03-19T09:08:34.723Z,22.08
2023-03-19T09:18:40.429Z,22.76
2023-03-19T09:28:46.556Z,25.47
2023-03-19T09:38:52.868Z,27.03
2023-03-19T09:49:01.946Z,28.40
2023-03-19T09:59:09.696Z,29.46
2023-03-19T10:09:32.021Z,30.44
2023-03-19T10:19:43.493Z,30.89
2023-03-19T10:29:49.357Z,31.37
2023-03-19T10:39:57.287Z,31.63
2023-03-19T10:50:03.866Z,31.77
2023-03-19T11:00:19.501Z,31.93
2023-03-19T11:10:30.025Z,32.04
2023-03-19T11:20:38.333Z,32.18
2023-03-19T11:30:55.034Z,32.23
2023-03-19T11:41:12.108Z,32.67
2023-03-19T11:51:24.049Z,32.87
2023-03-19T12:02:03.365Z,32.79
2023-03-19T12:12:25.450Z,32.83
2023-03-19T12:22:43.892Z,32.77
2023-03-19T12:33:03.990Z,32.75
2023-03-19T12:43:29.568Z,33.30
2023-03-19T12:53:44.797Z,33.35
2023-03-19T13:03:55.944Z,33.53
2023-03-19T13:14:09.887Z,33.49
2023-03-19T13:24:23.041Z,33.48
2023-03-19T13:34:32.433Z,33.78
2023-03-19T13:44:43.322Z,34.06
2023-03-19T13:54:53.509Z,34.04
2023-03-19T14:05:03.043Z,34.05
2023-03-19T14:15:22.770Z,33.94
2023-03-19T14:25:49.392Z,33.75
2023-03-19T14:35:57.257Z,33.83
2023-03-19T14:46:04.181Z,34.15
2023-03-19T14:56:17.648Z,34.45
2023-03-19T15:06:24.284Z,34.84
2023-03-19T15:16:40.961Z,35.14
2023-03-19T15:26:48.586Z,35.58
2023-03-19T15:36:57.043Z,35.92
2023-03-19T15:47:05.024Z,36.24
2023-03-19T15:57:14.460Z,36.84
2023-03-19T16:07:34.138Z,37.67
2023-03-19T16:17:42.352Z,38.10
2023-03-19T16:27:49.124Z,38.79
2023-03-19T16:37:56.406Z,39.42
2023-03-19T16:48:04.439Z,40.69
2023-03-19T16:58:15.246Z,41.63
2023-03-19T17:08:21.895Z,42.52
2023-03-19T17:18:30.450Z,42.89
2023-03-19T17:28:36.032Z,43.55
2023-03-19T17:38:42.050Z,44.59
2023-03-19T17:48:49.319Z,45.73
2023-03-19T17:58:55.494Z,47.02
2023-03-19T18:09:01.274Z,47.96
2023-03-19T18:19:19.571Z,48.73
2023-03-19T18:29:25.322Z,49.33
2023-03-19T18:39:33.064Z,50.18
2023-03-19T18:49:38.823Z,51.06
2023-03-19T18:59:44.890Z,51.47
2023-03-19T19:09:50.823Z,52.49
2023-03-19T19:19:56.840Z,53.52
2023-03-19T19:30:03.201Z,54.53
2023-03-19T19:40:12.428Z,55.20
2023-03-19T19:50:22.046Z,56.15
2023-03-19T20:00:30.045Z,56.79
2023-03-19T20:10:35.984Z,57.42
2023-03-19T20:20:41.948Z,57.77
2023-03-19T20:30:48.241Z,58.62
2023-03-19T20:40:55.871Z,59.46
2023-03-19T20:51:04.064Z,60.09
2023-03-19T21:01:10.873Z,60.56
2023-03-19T21:11:19.115Z,61.37
2023-03-19T21:21:29.851Z,61.71
2023-03-19T21:31:36.154Z,61.92
2023-03-19T21:41:42.758Z,62.31
2023-03-19T21:51:50.074Z,63.25
2023-03-19T22:01:56.609Z,63.60
2023-03-19T22:12:02.711Z,63.91
2023-03-19T22:22:09.299Z,63.94
2023-03-19T22:32:19.096Z,64.39
2023-03-19T22:42:28.636Z,65.13
2023-03-19T22:52:34.910Z,65.23
2023-03-19T23:02:41.559Z,65.16
2023-03-19T23:12:47.641Z,65.53
2023-03-19T23:22:53.352Z,65.96
2023-03-19T23:33:01.289Z,66.51
2023-03-19T23:43:08.553Z,66.99
2023-03-19T23:53:19.715Z,66.49
